Time;durP1;ratioP1;P1;durP2;ratioP2;P2;SDS_P1;SDS_P2;PMS_P1;PMS_P2;Temp;Humidity;BMP_temperature;BMP_pressure;BME280_temperature;BME280_humidity;BME280_pressure;Samples;Min_cycle;Max_cycle;Signal;HPM_P1;HPM_P2
2022/08/24 00:00:09;;;;;;;37.60;27.00;;;20.00;99.90;;;;;;5100077;27;20192;-83
2022/08/24 00:02:34;;;;;;;33.17;25.98;;;20.00;99.90;;;;;;5110652;27;20845;-78
2022/08/24 00:05:00;;;;;;;41.08;29.02;;;19.90;99.90;;;;;;5101750;27;20067;-83
2022/08/24 00:07:26;;;;;;;36.00;27.25;;;19.80;99.90;;;;;;5102459;27;20051;-80
2022/08/24 00:09:52;;;;;;;36.78;28.10;;;19.70;99.90;;;;;;5108422;27;20067;-79
2022/08/24 00:12:18;;;;;;;38.03;28.23;;;19.70;99.90;;;;;;5103046;27;20039;-80
2022/08/24 00:14:44;;;;;;;34.90;25.88;;;19.70;99.90;;;;;;5109131;27;20043;-79
2022/08/24 00:17:10;;;;;;;32.67;23.75;;;19.60;99.90;;;;;;5102816;27;20100;-76
2022/08/24 00:19:36;;;;;;;35.25;27.80;;;19.60;99.90;;;;;;5112224;27;20039;-80
2022/08/24 00:22:02;;;;;;;37.55;26.88;;;19.60;99.90;;;;;;5105144;28;20650;-78
2022/08/24 00:24:28;;;;;;;37.35;26.13;;;19.50;99.90;;;;;;5110914;27;20061;-81
2022/08/24 00:26:54;;;;;;;37.33;23.92;;;19.50;99.90;;;;;;5137557;27;20591;-81
2022/08/24 00:29:21;;;;;;;36.97;27.25;;;19.40;99.90;;;;;;5132763;27;20099;-81
2022/08/24 00:31:48;;;;;;;36.47;25.88;;;19.50;99.90;;;;;;5126760;27;20148;-80
2022/08/24 00:34:16;;;;;;;34.92;24.63;;;19.40;99.90;;;;;;5130617;27;20047;-81
2022/08/24 00:36:42;;;;;;;38.17;26.00;;;19.40;99.90;;;;;;5126656;27;20050;-80
2022/08/24 00:39:08;;;;;;;36.55;26.17;;;19.40;99.90;;;;;;5131998;27;20047;-80
2022/08/24 00:41:34;;;;;;;30.90;24.05;;;19.40;99.90;;;;;;5128542;27;20039;-77
2022/08/24 00:44:03;;;;;;;34.42;25.15;;;19.30;99.90;;;;;;5129934;27;20057;-76
2022/08/24 00:46:36;;;;;;;29.60;21.92;;;19.30;99.90;;;;;;5127005;27;20046;-82
2022/08/24 00:49:23;;;;;;;37.00;26.25;;;19.20;99.90;;;;;;5114774;27;20553;-80
2022/08/24 00:52:14;;;;;;;36.67;27.55;;;19.20;99.90;;;;;;5124156;27;20043;-80
2022/08/24 00:54:49;;;;;;;30.88;24.95;;;19.20;99.90;;;;;;5118973;27;20055;-77
2022/08/24 00:57:20;;;;;;;29.48;21.52;;;19.10;99.90;;;;;;5137560;27;20901;-80
2022/08/24 00:59:53;;;;;;;31.13;24.70;;;19.10;99.90;;;;;;5131159;27;20139;-79
2022/08/24 01:02:23;;;;;;;29.45;23.33;;;19.10;99.90;;;;;;5137921;27;20050;-81
2022/08/24 01:04:59;;;;;;;39.22;27.83;;;19.10;99.90;;;;;;5140743;27;20552;-78
2022/08/24 01:07:28;;;;;;;33.38;27.48;;;19.10;99.90;;;;;;5110735;27;20047;-77
2022/08/24 01:09:58;;;;;;;36.95;27.05;;;19.00;99.90;;;;;;5130298;27;20943;-81
2022/08/24 01:12:26;;;;;;;35.05;28.10;;;19.00;99.90;;;;;;5122176;27;20084;-81
2022/08/24 01:14:53;;;;;;;41.58;29.92;;;19.00;99.90;;;;;;5120012;27;20397;-81
2022/08/24 01:20:05;;;;;;;30.27;23.35;;;18.90;99.90;;;;;;5127530;27;20046;-80
2022/08/24 01:22:53;;;;;;;30.83;24.52;;;18.90;99.90;;;;;;5134873;27;20413;-83
2022/08/24 01:25:20;;;;;;;32.65;23.73;;;18.80;99.90;;;;;;5133264;27;20406;-80
2022/08/24 01:27:49;;;;;;;34.72;26.80;;;18.80;99.90;;;;;;5138052;27;20047;-80
2022/08/24 01:30:16;;;;;;;39.88;27.55;;;18.70;99.90;;;;;;5106184;27;20111;-76
2022/08/24 01:32:55;;;;;;;30.80;22.98;;;18.70;99.90;;;;;;5131139;27;20057;-80
2022/08/24 01:35:21;;;;;;;35.05;26.17;;;18.70;99.90;;;;;;5135122;27;20039;-83
2022/08/24 01:37:48;;;;;;;34.72;24.83;;;18.70;99.90;;;;;;5131586;27;20051;-80
2022/08/24 01:40:14;;;;;;;34.20;25.65;;;18.70;99.90;;;;;;5135069;27;20038;-78
2022/08/24 01:42:47;;;;;;;32.53;25.17;;;18.60;99.90;;;;;;5119674;27;20058;-79
2022/08/24 01:45:13;;;;;;;35.63;25.98;;;18.60;99.90;;;;;;5117033;27;20683;-81
2022/08/24 01:47:38;;;;;;;31.20;25.58;;;18.60;99.90;;;;;;5136736;27;20039;-81
2022/08/24 01:50:04;;;;;;;39.40;28.00;;;18.60;99.90;;;;;;5129821;27;20043;-78
2022/08/24 01:52:31;;;;;;;38.45;26.40;;;18.50;99.90;;;;;;5128667;27;20047;-77
2022/08/24 01:54:56;;;;;;;35.67;25.83;;;18.50;99.90;;;;;;5126899;27;20057;-81
2022/08/24 01:57:26;;;;;;;33.85;25.65;;;18.50;99.90;;;;;;5139508;27;20050;-80
2022/08/24 01:59:52;;;;;;;33.20;26.15;;;18.40;99.90;;;;;;5134805;27;20129;-80
2022/08/24 02:02:23;;;;;;;33.35;25.50;;;18.40;99.90;;;;;;5140910;27;20050;-81
2022/08/24 02:04:49;;;;;;;36.47;28.15;;;18.30;99.90;;;;;;5134525;27;20825;-79
2022/08/24 02:07:15;;;;;;;29.33;21.52;;;18.30;99.90;;;;;;5134822;27;20065;-79
2022/08/24 02:09:41;;;;;;;30.77;24.90;;;18.30;99.90;;;;;;5133927;27;20393;-81
2022/08/24 02:12:07;;;;;;;35.20;25.98;;;18.20;99.90;;;;;;5139346;27;20070;-80
2022/08/24 02:14:33;;;;;;;29.15;23.92;;;18.20;99.90;;;;;;5133769;27;20410;-81
2022/08/24 02:16:59;;;;;;;26.05;19.73;;;18.20;99.90;;;;;;5119637;27;20062;-82
2022/08/24 02:19:26;;;;;;;26.50;21.25;;;18.20;99.90;;;;;;5130925;27;20269;-78
2022/08/24 02:21:52;;;;;;;32.60;25.63;;;18.20;99.90;;;;;;5120113;27;20125;-80
2022/08/24 02:24:17;;;;;;;32.55;24.30;;;18.20;99.90;;;;;;5125657;27;20054;-82
2022/08/24 02:26:43;;;;;;;34.35;25.50;;;18.20;99.90;;;;;;5127225;27;20101;-79
2022/08/24 02:29:09;;;;;;;34.03;23.45;;;18.20;99.90;;;;;;5119629;27;20054;-81
2022/08/24 02:31:35;;;;;;;32.83;24.45;;;18.20;99.90;;;;;;5121460;27;20544;-78
2022/08/24 02:34:01;;;;;;;28.75;23.08;;;18.20;99.90;;;;;;5124875;27;20089;-79
2022/08/24 02:36:27;;;;;;;38.15;26.13;;;18.20;99.90;;;;;;5109361;27;20042;-82
2022/08/24 02:38:54;;;;;;;34.08;22.73;;;18.20;99.90;;;;;;5134586;27;20038;-80
2022/08/24 02:41:23;;;;;;;32.97;24.80;;;18.20;99.90;;;;;;5135567;27;20093;-78
2022/08/24 02:43:49;;;;;;;27.75;21.95;;;18.20;99.90;;;;;;5122180;27;20049;-80
2022/08/24 02:46:19;;;;;;;32.95;24.65;;;18.10;99.90;;;;;;5114330;27;20051;-79
2022/08/24 02:48:45;;;;;;;32.45;23.52;;;18.10;99.90;;;;;;5135675;27;20043;-79
2022/08/24 02:51:22;;;;;;;31.08;23.00;;;18.10;99.90;;;;;;5131339;27;20151;-82
2022/08/24 02:53:48;;;;;;;28.98;22.60;;;18.10;99.90;;;;;;5137454;27;20050;-81
2022/08/24 02:56:16;;;;;;;32.50;24.67;;;18.00;99.90;;;;;;5132627;27;20473;-80
2022/08/24 02:58:46;;;;;;;30.58;21.45;;;18.00;99.90;;;;;;5113925;27;20122;-77
2022/08/24 03:01:13;;;;;;;32.88;23.77;;;18.00;99.90;;;;;;5128020;27;20766;-81
2022/08/24 03:03:39;;;;;;;31.13;22.35;;;18.00;99.90;;;;;;5138604;27;20038;-82
2022/08/24 03:06:06;;;;;;;27.98;21.33;;;18.00;99.90;;;;;;5130391;27;20138;-79
2022/08/24 03:08:32;;;;;;;29.90;22.27;;;17.90;99.90;;;;;;5135588;27;20035;-80
2022/08/24 03:10:59;;;;;;;32.30;27.08;;;18.00;99.90;;;;;;5135054;27;20135;-80
2022/08/24 03:13:29;;;;;;;34.95;25.67;;;17.90;99.90;;;;;;5137330;27;20312;-77
2022/08/24 03:15:56;;;;;;;31.90;23.50;;;18.00;99.90;;;;;;5121075;27;20043;-77
2022/08/24 03:18:24;;;;;;;31.63;23.15;;;17.90;99.90;;;;;;5128795;27;20830;-78
2022/08/24 03:20:51;;;;;;;28.23;22.63;;;17.90;99.90;;;;;;5124412;27;20086;-76
2022/08/24 03:23:17;;;;;;;36.15;25.38;;;17.90;99.90;;;;;;5124002;27;20081;-77
2022/08/24 03:25:43;;;;;;;30.30;23.80;;;17.90;99.90;;;;;;5129759;27;20057;-77
2022/08/24 03:28:10;;;;;;;36.92;26.08;;;17.80;99.90;;;;;;5129297;27;20062;-80
2022/08/24 03:30:38;;;;;;;31.38;24.30;;;17.80;99.90;;;;;;5138221;27;20174;-80
2022/08/24 03:33:04;;;;;;;32.38;24.83;;;17.70;99.90;;;;;;5137089;27;20485;-80
2022/08/24 03:35:30;;;;;;;29.60;21.63;;;17.70;99.90;;;;;;5120162;27;20061;-76
2022/08/24 03:37:56;;;;;;;34.15;24.20;;;17.70;99.90;;;;;;5135627;27;20906;-79
2022/08/24 03:40:22;;;;;;;32.33;25.45;;;17.80;99.90;;;;;;5114075;27;20061;-79
2022/08/24 03:42:49;;;;;;;30.13;24.60;;;17.70;99.90;;;;;;5120465;27;20058;-79
2022/08/24 03:45:14;;;;;;;28.85;22.63;;;17.70;99.90;;;;;;5121770;27;20227;-77
2022/08/24 03:47:40;;;;;;;36.30;24.17;;;17.70;99.90;;;;;;5119881;27;20528;-76
2022/08/24 03:50:08;;;;;;;31.30;25.10;;;17.60;99.90;;;;;;5131516;27;20047;-79
2022/08/24 03:52:34;;;;;;;27.33;22.15;;;17.60;99.90;;;;;;5132042;27;20050;-74
2022/08/24 03:55:01;;;;;;;29.00;21.35;;;17.60;99.90;;;;;;5136467;27;20050;-78
2022/08/24 03:57:27;;;;;;;29.45;23.20;;;17.50;99.90;;;;;;5136910;27;20406;-78
2022/08/24 03:59:53;;;;;;;31.48;22.25;;;17.50;99.90;;;;;;5127497;27;20423;-79
2022/08/24 04:02:19;;;;;;;32.67;22.48;;;17.50;99.90;;;;;;5136523;27;20046;-81
2022/08/24 04:04:44;;;;;;;30.42;23.85;;;17.50;99.90;;;;;;5136652;27;20530;-79
2022/08/24 04:07:10;;;;;;;30.65;23.45;;;17.50;99.90;;;;;;5138001;27;20063;-76
2022/08/24 04:09:36;;;;;;;35.58;25.48;;;17.40;99.90;;;;;;5126996;27;20070;-79
2022/08/24 04:12:02;;;;;;;30.10;20.45;;;17.40;99.90;;;;;;5115680;27;20050;-81
2022/08/24 04:14:28;;;;;;;27.35;18.90;;;17.40;99.90;;;;;;5134946;27;20152;-79
2022/08/24 04:16:54;;;;;;;33.05;22.98;;;17.40;99.90;;;;;;5134134;27;20050;-81
2022/08/24 04:19:19;;;;;;;31.63;23.77;;;17.40;99.90;;;;;;5130412;27;20046;-78
2022/08/24 04:21:45;;;;;;;29.08;22.55;;;17.40;99.90;;;;;;5133389;27;20122;-79
2022/08/24 04:24:12;;;;;;;27.67;19.88;;;17.30;99.90;;;;;;5129815;27;20062;-79
2022/08/24 04:26:39;;;;;;;25.02;19.77;;;17.30;99.90;;;;;;5134626;27;20057;-75
2022/08/24 04:29:10;;;;;;;30.73;21.67;;;17.30;99.90;;;;;;5132871;27;20058;-79
2022/08/24 04:31:37;;;;;;;26.38;20.98;;;17.30;99.90;;;;;;5134652;27;20846;-75
2022/08/24 04:34:03;;;;;;;25.13;19.70;;;17.30;99.90;;;;;;5129338;27;20039;-78
2022/08/24 04:36:30;;;;;;;27.80;21.50;;;17.30;99.90;;;;;;5133643;27;20050;-80
2022/08/24 04:38:56;;;;;;;29.00;22.38;;;17.30;99.90;;;;;;5138185;27;20039;-80
2022/08/24 04:41:21;;;;;;;23.50;18.30;;;17.30;99.90;;;;;;5121105;27;20275;-77
2022/08/24 04:43:48;;;;;;;29.38;21.88;;;17.30;99.90;;;;;;5129962;27;20203;-78
2022/08/24 04:46:16;;;;;;;25.50;19.45;;;17.30;99.90;;;;;;5127835;27;20058;-80
2022/08/24 04:48:43;;;;;;;26.70;19.90;;;17.30;99.90;;;;;;5135899;27;20199;-79
2022/08/24 04:51:11;;;;;;;24.95;19.17;;;17.30;99.90;;;;;;5122795;27;20135;-81
2022/08/24 04:53:38;;;;;;;25.73;18.52;;;17.30;99.90;;;;;;5135725;27;20039;-79
2022/08/24 04:56:10;;;;;;;22.60;17.65;;;17.30;99.90;;;;;;5130818;27;20047;-79
2022/08/24 04:58:36;;;;;;;26.33;20.42;;;17.30;99.90;;;;;;5122229;27;20084;-80
2022/08/24 05:01:11;;;;;;;23.60;19.05;;;17.30;99.90;;;;;;5131533;27;20047;-78
2022/08/24 05:03:37;;;;;;;25.73;17.50;;;17.40;99.90;;;;;;5138336;27;20157;-78
2022/08/24 05:06:04;;;;;;;26.42;19.83;;;17.30;99.90;;;;;;5138008;27;20058;-79
2022/08/24 05:08:30;;;;;;;23.83;17.67;;;17.30;99.90;;;;;;5131929;27;20046;-78
2022/08/24 05:10:56;;;;;;;30.40;23.05;;;17.30;99.90;;;;;;5117646;27;20081;-76
2022/08/24 05:13:22;;;;;;;23.73;18.70;;;17.40;99.90;;;;;;5122652;27;20042;-76
2022/08/24 05:15:49;;;;;;;26.27;19.90;;;17.50;99.90;;;;;;5138704;27;20844;-76
2022/08/24 05:18:16;;;;;;;24.48;18.88;;;17.40;99.90;;;;;;5135481;27;20051;-78
2022/08/24 05:20:44;;;;;;;25.35;18.73;;;18.30;99.90;;;;;;5130880;27;20046;-75
2022/08/24 05:23:12;;;;;;;24.73;18.85;;;17.50;99.90;;;;;;5136680;27;20056;-78
2022/08/24 05:25:39;;;;;;;24.52;19.00;;;17.60;99.90;;;;;;5134501;27;20405;-79
2022/08/24 05:28:05;;;;;;;24.65;20.50;;;17.70;99.90;;;;;;5135756;27;20058;-77
2022/08/24 05:30:31;;;;;;;37.08;24.08;;;17.70;99.90;;;;;;5112747;27;20054;-79
2022/08/24 05:32:57;;;;;;;31.95;20.83;;;17.80;99.90;;;;;;5134335;27;20526;-80
2022/08/24 05:35:22;;;;;;;30.67;22.70;;;17.90;99.90;;;;;;5131444;27;20083;-77
2022/08/24 05:37:48;;;;;;;30.40;22.45;;;17.90;99.90;;;;;;5133330;27;20817;-80
2022/08/24 05:40:16;;;;;;;34.08;23.27;;;18.00;99.90;;;;;;5135348;27;20034;-80
2022/08/24 05:42:42;;;;;;;29.95;21.73;;;18.10;99.90;;;;;;5136608;27;20070;-78
2022/08/24 05:45:09;;;;;;;30.38;20.60;;;18.20;99.90;;;;;;5136597;27;20869;-80
2022/08/24 05:47:35;;;;;;;30.75;21.80;;;18.20;99.90;;;;;;5130756;27;20042;-77
2022/08/24 05:50:01;;;;;;;31.73;21.10;;;18.30;99.90;;;;;;5125901;27;20126;-78
2022/08/24 05:52:28;;;;;;;33.25;23.60;;;18.40;99.90;;;;;;5134865;27;20057;-81
2022/08/24 05:54:57;;;;;;;29.02;21.92;;;18.40;99.90;;;;;;5127809;27;20046;-79
2022/08/24 05:57:24;;;;;;;28.35;20.70;;;18.50;99.90;;;;;;5134710;27;20726;-73
2022/08/24 05:59:50;;;;;;;28.00;20.88;;;18.50;99.90;;;;;;5126638;27;20134;-72
2022/08/24 06:02:17;;;;;;;28.42;21.17;;;18.70;99.90;;;;;;5130382;27;20050;-72
2022/08/24 06:04:44;;;;;;;27.00;20.83;;;18.80;99.90;;;;;;5136496;27;20070;-72
2022/08/24 06:07:11;;;;;;;31.85;21.35;;;18.80;99.90;;;;;;5133789;27;20052;-71
2022/08/24 06:09:40;;;;;;;27.83;21.55;;;18.90;99.90;;;;;;5120513;27;20088;-72
2022/08/24 06:12:07;;;;;;;28.63;21.90;;;19.00;99.90;;;;;;5132957;27;20042;-73
2022/08/24 06:14:34;;;;;;;32.50;23.17;;;19.10;99.90;;;;;;5129854;27;20045;-72
2022/08/24 06:17:04;;;;;;;28.92;22.02;;;19.20;99.90;;;;;;5133293;27;20838;-73
2022/08/24 06:19:30;;;;;;;34.88;25.67;;;19.20;99.90;;;;;;5126307;27;20119;-73
2022/08/24 06:21:55;;;;;;;42.10;28.30;;;19.40;99.90;;;;;;5133804;27;20097;-72
2022/08/24 06:27:20;;;;;;;43.58;30.40;;;19.60;99.90;;;;;;5091361;27;20138;-72
2022/08/24 06:29:54;;;;;;;49.25;34.17;;;19.70;99.90;;;;;;5111777;27;20039;-73
2022/08/24 06:32:20;;;;;;;48.28;34.47;;;19.80;99.90;;;;;;5118257;27;20054;-72
2022/08/24 06:34:46;;;;;;;56.42;37.63;;;19.90;99.90;;;;;;5138050;27;20565;-72
2022/08/24 06:37:12;;;;;;;63.28;37.47;;;20.00;99.90;;;;;;4771517;27;10000641;-72
2022/08/24 06:39:37;;;;;;;56.78;39.13;;;20.20;99.90;;;;;;5126625;27;20152;-72
2022/08/24 06:42:04;;;;;;;57.45;40.05;;;20.30;99.90;;;;;;5119515;27;20489;-72
2022/08/24 06:44:31;;;;;;;53.83;39.25;;;20.40;99.90;;;;;;5134957;27;20085;-72
2022/08/24 06:46:57;;;;;;;49.17;37.38;;;20.60;99.90;;;;;;5118648;27;20050;-72
2022/08/24 06:49:23;;;;;;;47.08;34.28;;;20.80;99.90;;;;;;5114453;27;20050;-72
2022/08/24 06:51:49;;;;;;;39.85;31.95;;;20.90;99.90;;;;;;5124587;27;20175;-72
2022/08/24 06:54:15;;;;;;;44.10;30.17;;;21.10;99.90;;;;;;5124217;27;20049;-71
2022/08/24 06:56:41;;;;;;;39.38;27.80;;;21.20;99.90;;;;;;5131205;27;20399;-72
2022/08/24 06:59:07;;;;;;;34.50;26.42;;;21.40;99.90;;;;;;4767574;27;10000060;-71
2022/08/24 07:01:33;;;;;;;30.10;24.55;;;21.50;99.90;;;;;;5125385;27;20043;-72
2022/08/24 07:03:58;;;;;;;27.20;21.92;;;21.70;99.90;;;;;;5129177;27;20042;-72
2022/08/24 07:06:24;;;;;;;25.52;19.80;;;21.80;99.90;;;;;;5125570;27;20046;-72
2022/08/24 07:08:51;;;;;;;22.27;19.35;;;22.10;99.90;;;;;;5130807;27;20035;-72
2022/08/24 07:11:18;;;;;;;21.92;18.60;;;22.80;99.90;;;;;;5128056;27;20046;-72
2022/08/24 07:13:48;;;;;;;23.35;18.60;;;24.30;99.90;;;;;;5125220;27;20066;-72
2022/08/24 07:16:15;;;;;;;24.08;20.25;;;25.80;99.90;;;;;;5128118;27;20125;-71
2022/08/24 07:18:41;;;;;;;15.25;12.68;;;27.10;99.90;;;;;;5128429;27;20046;-71
2022/08/24 07:21:07;;;;;;;9.52;7.53;;;28.10;99.90;;;;;;5130291;27;20084;-75
2022/08/24 07:23:33;;;;;;;10.23;7.80;;;28.80;99.90;;;;;;5130820;27;20080;-75
2022/08/24 07:26:09;;;;;;;14.80;12.07;;;29.40;99.90;;;;;;5130898;27;20116;-77
2022/08/24 07:28:39;;;;;;;15.38;11.60;;;30.20;99.80;;;;;;5129922;27;20042;-78
2022/08/24 07:31:05;;;;;;;13.68;12.27;;;31.00;98.20;;;;;;5131050;27;20589;-77
2022/08/24 07:33:31;;;;;;;16.83;12.23;;;31.70;97.10;;;;;;5130813;27;20098;-77
2022/08/24 07:35:56;;;;;;;15.48;13.52;;;32.10;95.90;;;;;;5130015;27;20042;-76
2022/08/24 07:38:22;;;;;;;19.50;14.32;;;31.90;94.80;;;;;;5128784;27;20078;-74
2022/08/24 07:40:48;;;;;;;17.20;15.32;;;32.20;94.70;;;;;;5128589;27;20045;-79
2022/08/24 07:43:14;;;;;;;18.50;16.63;;;32.60;94.30;;;;;;5131139;27;21633;-77
2022/08/24 07:45:40;;;;;;;16.42;14.10;;;32.60;93.50;;;;;;5129281;27;20072;-75
2022/08/24 07:48:07;;;;;;;13.63;12.15;;;32.20;92.90;;;;;;5128986;27;20073;-79
2022/08/24 07:50:33;;;;;;;17.65;13.35;;;31.80;93.00;;;;;;5112211;27;20075;-79
2022/08/24 07:52:58;;;;;;;14.77;12.68;;;31.80;92.70;;;;;;5095700;27;20050;-76
2022/08/24 07:55:24;;;;;;;14.30;12.20;;;32.00;92.60;;;;;;5129217;27;20092;-77
2022/08/24 07:57:50;;;;;;;17.20;11.52;;;32.50;92.30;;;;;;5129440;27;20142;-75
2022/08/24 08:00:18;;;;;;;11.93;10.70;;;33.00;91.60;;;;;;5129270;27;20039;-78
2022/08/24 08:02:46;;;;;;;13.50;10.95;;;33.30;91.10;;;;;;4774056;27;10000122;-76
2022/08/24 08:05:16;;;;;;;15.88;11.88;;;33.60;90.70;;;;;;5124481;27;20179;-76
2022/08/24 08:07:42;;;;;;;10.38;9.35;;;33.90;88.60;;;;;;5115530;27;20446;-75
2022/08/24 08:10:10;;;;;;;11.68;10.48;;;34.40;89.50;;;;;;5118409;27;20043;-75
2022/08/24 08:12:35;;;;;;;13.82;12.43;;;34.60;88.30;;;;;;5127968;27;20042;-75
2022/08/24 08:15:02;;;;;;;14.15;11.63;;;34.60;87.80;;;;;;5132034;27;20051;-75
2022/08/24 08:17:28;;;;;;;13.70;12.40;;;34.50;87.40;;;;;;5131093;27;20844;-75
2022/08/24 08:19:54;;;;;;;14.88;12.65;;;34.60;86.90;;;;;;5128715;27;20039;-75
2022/08/24 08:25:06;;;;;;;12.07;10.88;;;34.80;86.10;;;;;;5130578;27;20142;-74
2022/08/24 08:27:34;;;;;;;15.93;9.70;;;35.10;84.90;;;;;;5129403;27;20047;-76
2022/08/24 08:30:00;;;;;;;10.80;9.73;;;35.10;84.20;;;;;;5129299;27;20050;-76
2022/08/24 08:32:26;;;;;;;12.02;8.98;;;35.00;83.30;;;;;;5130687;27;20584;-76
2022/08/24 08:34:52;;;;;;;11.35;9.40;;;34.80;83.80;;;;;;5133464;27;20043;-75
2022/08/24 08:37:18;;;;;;;10.40;8.48;;;34.90;83.50;;;;;;5129259;27;20950;-75
2022/08/24 08:39:44;;;;;;;8.52;7.70;;;35.30;83.30;;;;;;5131233;27;20039;-76
2022/08/24 08:42:40;;;;;;;8.90;7.95;;;35.50;82.30;;;;;;5129039;27;20874;-75
2022/08/24 08:45:05;;;;;;;8.95;8.05;;;35.10;79.00;;;;;;5132670;27;20046;-72
2022/08/24 08:48:16;;;;;;;10.05;8.48;;;35.00;81.70;;;;;;5132630;27;20707;-73
2022/08/24 08:51:32;;;;;;;7.47;6.57;;;34.30;78.70;;;;;;5127441;27;20051;-73
2022/08/24 08:54:22;;;;;;;8.77;7.07;;;34.70;80.40;;;;;;5026073;28;20496;-74
2022/08/24 08:57:21;;;;;;;7.38;6.60;;;35.00;79.90;;;;;;5114926;27;20047;-72
2022/08/24 09:00:09;;;;;;;8.70;6.55;;;35.50;78.20;;;;;;5124810;27;20042;-76
2022/08/24 09:02:52;;;;;;;10.10;6.53;;;35.70;78.90;;;;;;5117882;27;20150;-74
2022/08/24 09:05:58;;;;;;;20.35;7.78;;;35.40;77.90;;;;;;5130492;27;20038;-76
2022/08/24 09:08:35;;;;;;;8.30;6.45;;;34.90;77.40;;;;;;5116335;27;20038;-76
2022/08/24 09:11:15;;;;;;;6.10;5.50;;;34.80;79.80;;;;;;5129665;27;20131;-75
2022/08/24 09:13:40;;;;;;;7.05;5.50;;;35.10;78.90;;;;;;5126762;27;20123;-74
2022/08/24 09:16:37;;;;;;;6.93;5.07;;;34.70;79.20;;;;;;5129473;27;20801;-72
2022/08/24 09:19:23;;;;;;;7.13;5.13;;;34.80;77.90;;;;;;5132104;27;20134;-76
2022/08/24 09:22:07;;;;;;;4.88;4.45;;;35.10;78.10;;;;;;5133710;27;20600;-72
2022/08/24 09:24:51;;;;;;;7.82;4.60;;;35.20;78.20;;;;;;5136267;27;20142;-72
2022/08/24 09:27:35;;;;;;;4.75;4.22;;;35.40;77.30;;;;;;5139119;27;20050;-80
2022/08/24 09:30:19;;;;;;;6.45;4.65;;;35.70;77.90;;;;;;5113214;27;20062;-77
2022/08/24 09:33:07;;;;;;;5.85;4.75;;;35.90;76.20;;;;;;5127863;27;20039;-83
2022/08/24 09:35:52;;;;;;;8.02;5.25;;;36.20;75.70;;;;;;5128262;27;20141;-76
2022/08/24 09:38:39;;;;;;;9.00;4.55;;;36.20;75.00;;;;;;5128770;27;20077;-76
2022/08/24 09:41:24;;;;;;;6.15;4.35;;;36.20;76.20;;;;;;5125567;27;20054;-71
2022/08/24 09:44:11;;;;;;;6.40;4.53;;;36.00;76.50;;;;;;5136245;27;20383;-72
2022/08/24 09:46:40;;;;;;;4.00;3.65;;;35.60;75.30;;;;;;5127861;27;20057;-73
2022/08/24 09:49:41;;;;;;;7.43;4.35;;;35.50;76.60;;;;;;5118111;27;20051;-74
2022/08/24 09:52:55;;;;;;;3.45;2.85;;;35.90;75.50;;;;;;5112564;27;20056;-72
2022/08/24 09:55:32;;;;;;;7.15;2.63;;;35.90;72.10;;;;;;5010357;28;20081;-73
2022/08/24 09:58:33;;;;;;;3.35;2.40;;;35.90;73.80;;;;;;5116316;27;20158;-72
2022/08/24 10:01:17;;;;;;;3.53;2.95;;;36.20;72.90;;;;;;5108624;27;20046;-71
2022/08/24 10:04:00;;;;;;;3.38;2.30;;;36.50;71.60;;;;;;5135330;27;20052;-72
2022/08/24 10:06:44;;;;;;;4.50;2.45;;;36.50;70.70;;;;;;5135268;27;20087;-74
2022/08/24 10:09:16;;;;;;;2.53;2.20;;;36.30;71.30;;;;;;5132687;27;20321;-74
2022/08/24 10:11:56;;;;;;;5.22;2.60;;;35.50;73.10;;;;;;5136636;27;20054;-74
2022/08/24 10:14:50;;;;;;;3.90;2.28;;;35.60;71.00;;;;;;5135258;27;20056;-74
2022/08/24 10:17:53;;;;;;;2.17;1.92;;;36.00;72.20;;;;;;5131808;27;20121;-73
2022/08/24 10:20:26;;;;;;;4.57;2.35;;;36.40;71.20;;;;;;5131236;27;20165;-74
2022/08/24 10:23:08;;;;;;;4.60;2.35;;;36.70;72.10;;;;;;5129584;27;20137;-74
2022/08/24 10:25:37;;;;;;;4.20;2.60;;;37.00;71.20;;;;;;5129948;27;20050;-74
2022/08/24 10:28:20;;;;;;;14.82;3.42;;;36.70;72.20;;;;;;5131269;27;20139;-74
2022/08/24 10:31:21;;;;;;;2.72;2.25;;;36.50;70.50;;;;;;5129461;27;20445;-74
2022/08/24 10:34:19;;;;;;;4.57;2.15;;;36.70;70.60;;;;;;5095030;27;20263;-74
2022/08/24 10:37:15;;;;;;;4.75;2.55;;;36.80;71.40;;;;;;5040122;27;20818;-74
2022/08/24 10:40:07;;;;;;;2.90;2.53;;;37.20;69.60;;;;;;5127948;27;20047;-74
2022/08/24 10:46:25;;;;;;;2.38;2.03;;;37.50;69.90;;;;;;5123807;27;20057;-74
2022/08/24 10:49:35;;;;;;;2.75;2.05;;;37.50;69.80;;;;;;5134337;27;20078;-68
2022/08/24 10:52:15;;;;;;;2.55;2.35;;;37.60;68.90;;;;;;5091778;28;20043;-68
2022/08/24 10:54:41;;;;;;;2.17;1.95;;;37.60;68.90;;;;;;5129777;27;20050;-69
2022/08/24 10:57:17;;;;;;;3.58;1.75;;;37.00;69.40;;;;;;5136523;27;20042;-68
2022/08/24 11:00:17;;;;;;;2.42;2.22;;;36.30;69.00;;;;;;5129376;27;20077;-68
2022/08/24 11:02:45;;;;;;;3.50;2.63;;;35.40;69.10;;;;;;5131209;27;20348;-68
2022/08/24 11:05:28;;;;;;;2.25;2.05;;;34.70;70.50;;;;;;5129882;27;20890;-68
2022/08/24 11:08:05;;;;;;;2.45;2.25;;;34.40;71.10;;;;;;5126951;27;20053;-68
2022/08/24 11:10:37;;;;;;;4.18;2.10;;;34.20;71.70;;;;;;5134559;27;20772;-74
2022/08/24 11:13:16;;;;;;;5.93;3.92;;;33.90;71.80;;;;;;5137167;27;20215;-75
2022/08/24 11:15:52;;;;;;;2.90;2.30;;;33.60;71.00;;;;;;5115151;27;20050;-75
2022/08/24 11:18:18;;;;;;;4.72;2.33;;;33.50;72.10;;;;;;5133606;27;20062;-75
2022/08/24 11:20:46;;;;;;;3.88;2.10;;;33.40;71.40;;;;;;5138542;27;20050;-76
2022/08/24 11:23:24;;;;;;;5.07;2.00;;;33.30;71.90;;;;;;5135799;27;20530;-75
2022/08/24 11:26:06;;;;;;;2.72;2.05;;;33.40;72.60;;;;;;5140754;27;20061;-75
2022/08/24 11:28:35;;;;;;;4.20;2.03;;;33.20;72.80;;;;;;5136960;27;20149;-75
2022/08/24 11:31:02;;;;;;;3.63;2.17;;;33.20;72.10;;;;;;5137999;27;20858;-75
2022/08/24 11:33:45;;;;;;;1.83;1.73;;;33.10;72.20;;;;;;5135228;27;20584;-74
2022/08/24 11:36:17;;;;;;;1.95;1.65;;;32.80;72.30;;;;;;5135619;27;20126;-75
2022/08/24 11:38:43;;;;;;;2.25;1.98;;;32.60;72.70;;;;;;5134627;27;20049;-75
2022/08/24 11:41:15;;;;;;;3.03;2.08;;;32.60;73.10;;;;;;5134072;27;20042;-75
2022/08/24 11:44:02;;;;;;;4.30;1.63;;;32.50;72.90;;;;;;5134361;27;20305;-75
2022/08/24 11:46:49;;;;;;;1.70;1.60;;;32.50;72.70;;;;;;5134073;27;20666;-75
2022/08/24 11:49:19;;;;;;;1.77;1.67;;;32.60;72.90;;;;;;5133264;27;20059;-75
2022/08/24 11:52:10;;;;;;;2.63;1.50;;;32.70;73.60;;;;;;5138082;27;20042;-75
2022/08/24 11:54:47;;;;;;;1.55;1.45;;;32.70;71.90;;;;;;5136684;27;20423;-75
2022/08/24 11:57:17;;;;;;;1.83;1.40;;;32.60;72.40;;;;;;5136182;27;20053;-76
2022/08/24 11:59:53;;;;;;;2.17;1.80;;;32.60;72.70;;;;;;5136118;27;20075;-75
2022/08/24 12:02:32;;;;;;;1.40;1.30;;;32.70;71.70;;;;;;5136999;27;20581;-75
2022/08/24 12:05:17;;;;;;;3.55;1.20;;;32.60;71.80;;;;;;5131956;27;20047;-75
2022/08/24 12:08:00;;;;;;;1.55;1.10;;;32.70;71.60;;;;;;5133846;27;20098;-76
2022/08/24 12:10:44;;;;;;;1.27;1.17;;;32.30;71.40;;;;;;5133082;27;20073;-82
2022/08/24 12:13:30;;;;;;;1.95;1.70;;;32.80;72.00;;;;;;5135996;27;20198;-83
2022/08/24 12:16:08;;;;;;;1.50;1.35;;;33.00;72.70;;;;;;5112238;27;20058;-83
2022/08/24 12:18:43;;;;;;;1.15;1.05;;;33.20;72.30;;;;;;5095842;27;20556;-82
2022/08/24 12:21:18;;;;;;;1.40;1.30;;;33.20;71.40;;;;;;5124506;27;20047;-84
2022/08/24 12:23:51;;;;;;;4.70;2.08;;;33.40;70.70;;;;;;5111046;27;20051;-82
2022/08/24 12:26:27;;;;;;;1.58;1.30;;;33.60;71.90;;;;;;5115604;27;20136;-82
2022/08/24 12:29:00;;;;;;;10.60;3.03;;;33.60;70.90;;;;;;5133364;27;20150;-79
2022/08/24 12:31:56;;;;;;;2.47;1.33;;;33.60;70.90;;;;;;5129285;27;20899;-81
2022/08/24 12:35:01;;;;;;;1.35;1.23;;;33.80;71.30;;;;;;5131620;27;20130;-82
2022/08/24 12:37:30;;;;;;;1.73;1.63;;;33.90;71.00;;;;;;5131500;27;20049;-80
2022/08/24 12:40:43;;;;;;;1.30;1.20;;;33.80;70.40;;;;;;5129894;27;20820;-82
2022/08/24 12:43:22;;;;;;;1.95;1.38;;;33.90;71.00;;;;;;5022413;28;20048;-80
2022/08/24 12:45:48;;;;;;;1.58;1.13;;;33.80;70.20;;;;;;5024489;28;20127;-84
2022/08/24 12:48:23;;;;;;;1.02;0.93;;;33.80;70.60;;;;;;5083067;27;20047;-79
2022/08/24 12:51:18;;;;;;;1.77;1.27;;;33.70;70.60;;;;;;5129483;27;20052;-81
2022/08/24 12:54:21;;;;;;;1.60;1.40;;;33.80;70.00;;;;;;5129894;27;20100;-80
2022/08/24 12:56:54;;;;;;;2.97;1.60;;;33.30;69.30;;;;;;5132310;27;20074;-81
2022/08/24 12:59:37;;;;;;;3.58;1.30;;;33.20;71.40;;;;;;5131048;27;20079;-84
2022/08/24 13:02:04;;;;;;;;;;;33.00;71.60;;;;;;5131066;27;20042;-82
2022/08/24 13:04:39;;;;;;;2.10;1.52;;;32.80;70.90;;;;;;5131793;27;20326;-84
2022/08/24 13:07:22;;;;;;;2.53;1.65;;;32.70;71.20;;;;;;5132973;27;20039;-80
2022/08/24 13:09:51;;;;;;;2.05;1.75;;;32.60;71.60;;;;;;5134083;27;20095;-83